« 尾道港開港850年記念ブルーインパルスの展示飛行【前日】 尾道市 2019/7/26 fri | トップページ | 尾道港開港850年記念ブルーインパルス展示飛行 尾道市 2019/7/27 sat »

2019/07/29

尾道展示飛行展開 広島空港 2019/7/26 fri

三原駅から中国バスで本郷の広島空港へ移動。

RJOA 260500Z 18006KT 120V240 9999 FEW020 SCT035 30/18 Q1008

20190726_rjoa_00ja713a

ANA679 RJTT-RJOA JA713A B777-281

20190726_rjoa_01ja713a

到着早々、いました。貨物地区前エプロンに

20190726_rjoa_02ja713a

夏空に青が映えます。

20190726_rjoa_03b5342

CCA154 RJOA-ZYTL B-5342 B737-89L

20190726_rjoa_04jg

ソラミィ広場では自衛隊のイベント開催中 西空と地本さん

20190726_rjoa_05bi

プルーインパルスはトークショーとサイン会 

RJOA 260600Z 20006KT 150V240 9999 FEW035 30/19 Q1008

20190726_rjoa_06bi265692

どこかで良く見えるところは?と、西側駐車場

20190726_rjoa_07bi265692

はい、ここがいいですね。給油支援に防府北基地からローリーが来ていた。純粋な民間空港展開は、先の奄美空港に次いで2回目。今後も期待いたします。

20190726_rjoa_08ja11mp

警察へりも見たいブルーインパルス わざわざ周回して着陸

20190726_rjoa_09ja11mp

JA11MP EC155B1 広島県警察 警視庁から転属したのかな

20190726_rjoa_10ja713a

RW10デパーチャーリクエスト

20190726_rjoa_11ja713a

ANA680 RJOA-RJTT JA713A B777-281

20190726_rjoa_12ja322j

JAL260 RJOA-RJTT JA322J B737-846

20190726_rjoa_13ja322j

後続のJAL便はRW28

20190726_rjoa_14ja11mp

JA11MP 先ほどの警察へり 西へ出発 

20190726_rjoa_15ja314j

JAL263 RJTT-RJOA JA314J B737-846

RJOA 260700Z 20005KT 150V330 9999 FEW035 30/20 Q1008

20190726_rjoa_16ja112a

ANA681 RJTT-RJOA JA112A A321-211

20190726_rjoa_17ja112a

このショットは能登に似てる

20190726_rjoa_18bi

お勤めご苦労さまです。 第12飛行教育団の燃料車

20190726_rjoa_19bi

明日27日もありますよ

20190726_rjoa_20bi

この日のイベントは、こんな進行でした。翌日は本番です。

 

|

« 尾道港開港850年記念ブルーインパルスの展示飛行【前日】 尾道市 2019/7/26 fri | トップページ | 尾道港開港850年記念ブルーインパルス展示飛行 尾道市 2019/7/27 sat »

BI」カテゴリの記事

広島空港」カテゴリの記事

コメント

コメントを書く



(ウェブ上には掲載しません)


コメントは記事投稿者が公開するまで表示されません。



« 尾道港開港850年記念ブルーインパルスの展示飛行【前日】 尾道市 2019/7/26 fri | トップページ | 尾道港開港850年記念ブルーインパルス展示飛行 尾道市 2019/7/27 sat »